Time;durP1;ratioP1;P1;durP2;ratioP2;P2;SDS_P1;SDS_P2;PMS_P1;PMS_P2;Temp;Humidity;BMP_temperature;BMP_pressure;BME280_temperature;BME280_humidity;BME280_pressure;Samples;Min_cycle;Max_cycle;Signal;HPM_P1;HPM_P2
2021/04/02 00:02:02;;;;;;;16.25;4.50;;;8.00;72.90;;;;;;5068095;28;20541;-84
2021/04/02 00:04:28;;;;;;;11.40;4.15;;;8.00;73.00;;;;;;5063829;28;20091;-84
2021/04/02 00:06:53;;;;;;;10.57;3.72;;;7.90;73.00;;;;;;5073966;28;20067;-84
2021/04/02 00:09:19;;;;;;;7.68;3.60;;;7.90;73.00;;;;;;5037413;28;20040;-85
2021/04/02 00:11:45;;;;;;;17.88;3.90;;;8.00;73.10;;;;;;5057278;28;20480;-76
2021/04/02 00:14:10;;;;;;;8.38;3.90;;;7.90;73.10;;;;;;5073584;28;20033;-76
2021/04/02 00:16:36;;;;;;;9.98;4.32;;;7.90;73.10;;;;;;5074256;28;20033;-76
2021/04/02 00:19:04;;;;;;;9.65;4.55;;;7.90;73.20;;;;;;5057394;28;20025;-79
2021/04/02 00:21:30;;;;;;;11.50;5.10;;;7.90;73.10;;;;;;5069340;28;20044;-79
2021/04/02 00:23:55;;;;;;;8.80;4.85;;;7.90;73.10;;;;;;5056560;28;20056;-79
2021/04/02 00:26:23;;;;;;;11.55;4.55;;;7.80;73.10;;;;;;5067540;28;20066;-79
2021/04/02 00:28:53;;;;;;;7.38;4.20;;;7.80;73.30;;;;;;5058441;28;20021;-79
2021/04/02 00:31:19;;;;;;;11.82;5.85;;;7.70;73.30;;;;;;5061170;28;20017;-79
2021/04/02 00:33:46;;;;;;;7.93;4.90;;;7.70;73.40;;;;;;5057122;28;20036;-78
2021/04/02 00:36:11;;;;;;;9.20;4.60;;;7.70;73.50;;;;;;5061678;28;20033;-79
2021/04/02 00:38:37;;;;;;;9.80;4.80;;;7.70;73.50;;;;;;5054100;28;20079;-79
2021/04/02 00:41:16;;;;;;;10.40;5.25;;;7.60;73.50;;;;;;5057320;28;20025;-79
2021/04/02 00:43:44;;;;;;;7.97;4.13;;;7.60;73.70;;;;;;5074566;28;20380;-79
2021/04/02 00:46:11;;;;;;;14.23;5.40;;;7.60;73.80;;;;;;5062917;28;20037;-79
2021/04/02 00:48:38;;;;;;;9.13;4.88;;;7.60;73.90;;;;;;5048719;28;20655;-79
2021/04/02 00:51:09;;;;;;;13.25;5.03;;;7.50;74.00;;;;;;5051128;28;20037;-79
2021/04/02 00:53:39;;;;;;;13.88;4.82;;;7.50;74.00;;;;;;5035168;28;20124;-80
2021/04/02 00:56:06;;;;;;;9.23;5.22;;;7.50;74.00;;;;;;5059747;28;20059;-79
2021/04/02 00:58:34;;;;;;;10.20;4.88;;;7.40;73.90;;;;;;5060539;28;20033;-79
2021/04/02 01:01:02;;;;;;;10.68;4.82;;;7.40;74.00;;;;;;5054912;28;20032;-79
2021/04/02 01:03:28;;;;;;;8.95;4.65;;;7.40;74.10;;;;;;5036818;28;20103;-79
2021/04/02 01:05:55;;;;;;;7.50;4.57;;;7.40;74.20;;;;;;5048985;28;20022;-79
2021/04/02 01:08:23;;;;;;;13.80;5.03;;;7.30;74.30;;;;;;5038192;28;20038;-79
2021/04/02 01:10:52;;;;;;;7.43;4.13;;;7.40;74.30;;;;;;5034711;28;20108;-79
2021/04/02 01:13:22;;;;;;;6.50;3.60;;;7.30;74.30;;;;;;5070723;28;20042;-79
2021/04/02 01:15:52;;;;;;;9.38;4.15;;;7.30;74.10;;;;;;5057885;28;20501;-80
2021/04/02 01:18:33;;;;;;;10.50;4.20;;;7.30;74.10;;;;;;5069805;28;20131;-79
2021/04/02 01:21:05;;;;;;;8.25;4.45;;;7.30;74.20;;;;;;5046182;28;20800;-79
2021/04/02 01:23:42;;;;;;;14.48;4.57;;;7.20;74.40;;;;;;5035239;28;20021;-79
2021/04/02 01:26:27;;;;;;;9.02;3.90;;;7.20;74.40;;;;;;5034176;28;20104;-79
2021/04/02 01:29:11;;;;;;;7.68;4.05;;;7.20;74.60;;;;;;5041898;28;20028;-79
2021/04/02 01:31:38;;;;;;;13.93;4.97;;;7.10;74.70;;;;;;5057763;28;20147;-79
2021/04/02 01:34:06;;;;;;;12.23;4.22;;;7.10;74.70;;;;;;5054100;28;20025;-80
2021/04/02 01:36:36;;;;;;;6.63;4.00;;;7.10;74.80;;;;;;5039574;28;20421;-79
2021/04/02 01:39:03;;;;;;;9.20;3.97;;;7.10;74.70;;;;;;5049859;28;20079;-79
2021/04/02 01:41:31;;;;;;;12.85;3.53;;;7.10;74.70;;;;;;5064262;28;20020;-79
2021/04/02 01:43:59;;;;;;;9.68;3.42;;;7.10;74.60;;;;;;5066530;28;20068;-79
2021/04/02 01:46:26;;;;;;;9.83;4.07;;;7.10;74.60;;;;;;5054416;28;20493;-80
2021/04/02 01:48:58;;;;;;;12.68;3.50;;;7.00;74.70;;;;;;5062674;28;20040;-79
2021/04/02 01:51:25;;;;;;;6.38;3.13;;;7.00;74.70;;;;;;5068137;28;20052;-79
2021/04/02 01:53:55;;;;;;;9.50;3.53;;;7.00;74.80;;;;;;5053703;28;20041;-76
2021/04/02 01:56:22;;;;;;;7.07;3.90;;;7.00;74.80;;;;;;5071367;28;20074;-76
2021/04/02 01:58:48;;;;;;;9.90;3.40;;;6.90;75.00;;;;;;5062010;28;20039;-76
2021/04/02 02:01:17;;;;;;;7.13;3.30;;;6.90;75.20;;;;;;5069787;28;20089;-76
2021/04/02 02:03:50;;;;;;;10.50;3.60;;;6.80;75.30;;;;;;5077560;28;20036;-76
2021/04/02 02:06:16;;;;;;;15.25;3.80;;;6.80;75.70;;;;;;5064544;28;20139;-76
2021/04/02 02:08:43;;;;;;;9.25;3.75;;;6.80;76.20;;;;;;5051952;28;20393;-76
2021/04/02 02:11:12;;;;;;;7.18;3.58;;;6.80;75.60;;;;;;5054738;28;20048;-76
2021/04/02 02:13:41;;;;;;;8.65;3.13;;;6.80;75.70;;;;;;5072832;28;20025;-76
2021/04/02 02:16:11;;;;;;;9.50;3.75;;;6.70;75.80;;;;;;5071689;28;20535;-76
2021/04/02 02:18:37;;;;;;;;;;;6.70;75.60;;;;;;5072799;28;20032;-76
2021/04/02 02:21:09;;;;;;;14.85;4.75;;;6.70;75.60;;;;;;5073027;28;19942;-76
2021/04/02 02:23:35;;;;;;;17.67;3.83;;;6.70;76.00;;;;;;5062849;28;20033;-76
2021/04/02 02:26:02;;;;;;;6.97;3.15;;;6.60;75.90;;;;;;5071438;28;20044;-76
2021/04/02 02:28:28;;;;;;;10.23;4.03;;;6.60;75.90;;;;;;5053563;28;20040;-77
2021/04/02 02:30:53;;;;;;;9.20;3.22;;;6.60;75.90;;;;;;5054780;28;20025;-76
2021/04/02 02:33:19;;;;;;;10.45;3.83;;;6.60;75.90;;;;;;5055140;28;20054;-76
2021/04/02 02:35:45;;;;;;;6.28;3.38;;;6.60;75.90;;;;;;5037737;28;20119;-76
2021/04/02 02:38:11;;;;;;;9.50;3.42;;;6.60;76.70;;;;;;5047292;28;20036;-76
2021/04/02 02:40:38;;;;;;;10.32;3.88;;;6.60;76.10;;;;;;5069489;28;20020;-77
2021/04/02 02:43:05;;;;;;;6.05;2.95;;;6.50;76.80;;;;;;5071412;28;20436;-76
2021/04/02 02:45:32;;;;;;;7.82;3.15;;;6.50;76.20;;;;;;5064748;28;20068;-76
2021/04/02 02:47:58;;;;;;;11.50;4.25;;;6.40;76.30;;;;;;5047550;28;20482;-76
2021/04/02 02:50:29;;;;;;;15.20;3.83;;;6.40;76.40;;;;;;5051371;28;20052;-76
2021/04/02 02:52:56;;;;;;;12.07;4.00;;;6.40;76.60;;;;;;5051054;28;20037;-76
2021/04/02 02:55:25;;;;;;;10.20;4.28;;;6.40;76.70;;;;;;5044665;28;20070;-76
2021/04/02 02:57:53;;;;;;;9.30;3.00;;;6.40;76.70;;;;;;5051404;28;20029;-76
2021/04/02 03:00:28;;;;;;;10.13;4.25;;;6.40;76.70;;;;;;5050344;28;20326;-76
2021/04/02 03:02:58;;;;;;;9.95;3.92;;;6.40;76.90;;;;;;5051787;28;20496;-76
2021/04/02 03:05:27;;;;;;;11.07;4.10;;;6.40;76.90;;;;;;5051861;28;20029;-76
2021/04/02 03:08:00;;;;;;;11.90;3.40;;;6.40;77.00;;;;;;5052218;28;20033;-76
2021/04/02 03:10:27;;;;;;;11.10;3.83;;;6.40;77.10;;;;;;5047568;28;20057;-76
2021/04/02 03:12:55;;;;;;;7.88;3.30;;;6.40;77.10;;;;;;5040077;28;20029;-76
2021/04/02 03:15:22;;;;;;;11.30;3.78;;;6.40;77.20;;;;;;5038847;28;20021;-76
2021/04/02 03:17:56;;;;;;;15.13;4.15;;;6.40;77.30;;;;;;5044325;28;20048;-76
2021/04/02 03:20:23;;;;;;;11.68;3.75;;;6.40;77.40;;;;;;5032991;28;20116;-76
2021/04/02 03:22:51;;;;;;;12.35;3.70;;;6.40;77.60;;;;;;5050471;28;20056;-75
2021/04/02 03:25:20;;;;;;;8.57;3.17;;;6.40;77.60;;;;;;5055351;28;20029;-76
2021/04/02 03:27:47;;;;;;;11.77;4.00;;;6.40;77.70;;;;;;5039465;28;20067;-77
2021/04/02 03:30:15;;;;;;;7.00;2.90;;;6.40;77.60;;;;;;5037384;28;20032;-76
2021/04/02 03:32:44;;;;;;;7.22;2.72;;;6.40;77.60;;;;;;5042132;28;20065;-76
2021/04/02 03:35:11;;;;;;;13.60;3.60;;;6.40;77.70;;;;;;5042562;28;20017;-76
2021/04/02 03:37:39;;;;;;;12.77;3.97;;;6.40;77.60;;;;;;5045234;28;20045;-76
2021/04/02 03:40:10;;;;;;;10.25;3.65;;;6.40;78.00;;;;;;5045449;28;20075;-76
2021/04/02 03:42:36;;;;;;;8.73;3.15;;;6.40;78.10;;;;;;5047463;28;20032;-76
2021/04/02 03:45:04;;;;;;;12.90;4.03;;;6.40;78.00;;;;;;5056136;28;20377;-76
2021/04/02 03:47:31;;;;;;;10.55;3.55;;;6.40;78.10;;;;;;5056745;28;20079;-76
2021/04/02 03:49:57;;;;;;;10.13;3.67;;;6.40;78.20;;;;;;5079418;28;20082;-76
2021/04/02 03:52:33;;;;;;;15.18;3.70;;;6.40;78.40;;;;;;5064835;28;20032;-76
2021/04/02 03:55:00;;;;;;;10.25;3.28;;;6.40;78.70;;;;;;5062815;28;20024;-76
2021/04/02 03:57:28;;;;;;;8.57;3.17;;;6.40;78.70;;;;;;5064302;28;20035;-76
2021/04/02 03:59:58;;;;;;;10.00;3.45;;;6.40;78.60;;;;;;5073246;28;20023;-76
2021/04/02 04:02:24;;;;;;;7.63;3.20;;;6.40;78.80;;;;;;5073316;28;20020;-76
2021/04/02 04:04:51;;;;;;;8.93;3.30;;;6.30;78.70;;;;;;5075333;28;20170;-76
2021/04/02 04:07:18;;;;;;;10.05;3.50;;;6.30;78.80;;;;;;5079386;28;20373;-76
2021/04/02 04:09:45;;;;;;;15.23;3.88;;;6.30;78.90;;;;;;5054202;28;20023;-76
2021/04/02 04:12:13;;;;;;;12.38;3.58;;;6.30;79.00;;;;;;5065423;28;20388;-76
2021/04/02 04:14:42;;;;;;;16.50;4.70;;;6.30;79.20;;;;;;5077534;28;20025;-76
2021/04/02 04:17:11;;;;;;;9.68;2.95;;;6.30;79.20;;;;;;5073423;28;20036;-76
2021/04/02 04:19:38;;;;;;;13.48;3.28;;;6.30;79.30;;;;;;5065428;28;20025;-76
2021/04/02 04:22:06;;;;;;;9.85;3.60;;;6.30;79.40;;;;;;5064700;28;20032;-77
2021/04/02 04:24:33;;;;;;;9.98;3.15;;;6.30;79.50;;;;;;5051092;28;20083;-76
2021/04/02 04:27:03;;;;;;;8.23;3.40;;;6.20;79.40;;;;;;5070530;28;20044;-76
2021/04/02 04:29:46;;;;;;;16.45;3.95;;;6.30;79.60;;;;;;5060237;28;20036;-75
2021/04/02 04:32:17;;;;;;;10.43;3.70;;;6.30;79.60;;;;;;5101969;28;20063;-76
2021/04/02 04:34:44;;;;;;;15.00;3.55;;;6.30;79.60;;;;;;5075177;28;20029;-76
2021/04/02 04:37:12;;;;;;;15.10;3.58;;;6.30;79.70;;;;;;5064387;28;20025;-76
2021/04/02 04:39:40;;;;;;;11.07;3.70;;;6.30;79.70;;;;;;5052800;28;20028;-76
2021/04/02 04:42:07;;;;;;;7.38;2.58;;;6.30;79.80;;;;;;5070170;28;20016;-76
2021/04/02 04:44:34;;;;;;;6.95;2.90;;;6.30;79.60;;;;;;5073333;28;20417;-76
2021/04/02 04:47:00;;;;;;;7.88;2.95;;;6.30;79.70;;;;;;5037031;28;20044;-76
2021/04/02 04:49:26;;;;;;;11.93;3.33;;;6.30;79.90;;;;;;5053261;28;20029;-76
2021/04/02 04:51:52;;;;;;;8.75;3.22;;;6.20;80.00;;;;;;5036278;28;20482;-76
2021/04/02 04:54:24;;;;;;;10.20;3.05;;;6.30;80.10;;;;;;5049957;28;20040;-76
2021/04/02 04:56:52;;;;;;;8.00;2.85;;;6.30;80.00;;;;;;5047248;28;20029;-76
2021/04/02 04:59:21;;;;;;;14.40;2.70;;;6.30;80.00;;;;;;5045474;28;20392;-76
2021/04/02 05:01:50;;;;;;;8.10;3.05;;;6.30;79.90;;;;;;5051810;28;20032;-76
2021/04/02 05:04:17;;;;;;;12.65;3.50;;;6.40;79.90;;;;;;5036336;28;20032;-76
2021/04/02 05:06:45;;;;;;;11.07;3.38;;;6.40;79.80;;;;;;5046514;28;20552;-76
2021/04/02 05:09:11;;;;;;;10.07;2.83;;;6.40;79.70;;;;;;5054486;28;20032;-77
2021/04/02 05:11:39;;;;;;;8.98;2.88;;;6.30;79.80;;;;;;5039860;28;20037;-76
2021/04/02 05:14:08;;;;;;;14.40;3.40;;;6.30;79.90;;;;;;5034386;28;20108;-76
2021/04/02 05:16:35;;;;;;;9.55;3.17;;;6.30;80.00;;;;;;5048371;28;20021;-76
2021/04/02 05:19:02;;;;;;;13.07;3.50;;;6.20;80.10;;;;;;5052842;28;20087;-76
2021/04/02 05:21:28;;;;;;;11.30;2.83;;;6.20;80.30;;;;;;5038540;28;20035;-76
2021/04/02 05:23:53;;;;;;;13.55;3.13;;;6.20;80.30;;;;;;5045268;28;20029;-76
2021/04/02 05:26:20;;;;;;;6.90;2.60;;;6.20;80.50;;;;;;5040855;28;20429;-76
2021/04/02 05:28:48;;;;;;;8.57;3.00;;;6.20;80.60;;;;;;5041881;28;20017;-76
2021/04/02 05:31:14;;;;;;;11.13;3.20;;;6.20;80.60;;;;;;5049962;28;20029;-76
2021/04/02 05:33:39;;;;;;;14.10;3.10;;;6.20;80.70;;;;;;5044096;28;20033;-76
2021/04/02 05:36:05;;;;;;;8.13;2.67;;;6.20;80.80;;;;;;5027372;28;20437;-76
2021/04/02 05:38:31;;;;;;;7.78;2.10;;;6.20;80.80;;;;;;5050538;28;20028;-76
2021/04/02 05:41:06;;;;;;;10.48;2.55;;;6.20;80.70;;;;;;5026137;28;20033;-75
2021/04/02 05:43:46;;;;;;;10.25;2.30;;;6.20;80.70;;;;;;5050243;28;20032;-75
2021/04/02 05:46:13;;;;;;;11.43;2.53;;;6.20;80.60;;;;;;5045253;28;20045;-75
2021/04/02 05:48:44;;;;;;;13.45;2.80;;;6.30;80.60;;;;;;5037536;28;20095;-75
2021/04/02 05:51:11;;;;;;;9.95;2.30;;;6.30;80.70;;;;;;5042893;28;20386;-75
2021/04/02 05:53:38;;;;;;;10.77;2.45;;;6.30;80.60;;;;;;5055755;28;20456;-75
2021/04/02 05:56:05;;;;;;;8.82;2.60;;;6.30;80.50;;;;;;5042019;28;20025;-75
2021/04/02 05:58:31;;;;;;;8.18;2.35;;;6.30;80.60;;;;;;5055368;28;20428;-75
2021/04/02 06:00:57;;;;;;;12.63;2.95;;;6.30;80.70;;;;;;5053508;28;20109;-75
2021/04/02 06:03:24;;;;;;;12.82;2.38;;;6.30;80.80;;;;;;5043123;28;20061;-75
2021/04/02 06:05:49;;;;;;;8.63;2.45;;;6.30;80.90;;;;;;5050756;28;20076;-75
2021/04/02 06:08:17;;;;;;;4.07;1.90;;;6.40;81.00;;;;;;5036656;28;20489;-75
2021/04/02 06:10:42;;;;;;;11.90;2.65;;;6.40;80.90;;;;;;5034661;28;20390;-75
2021/04/02 06:13:08;;;;;;;7.88;2.72;;;6.40;80.90;;;;;;5054974;28;20029;-76
2021/04/02 06:15:34;;;;;;;16.80;3.50;;;6.40;81.00;;;;;;5050489;28;20029;-75
2021/04/02 06:18:06;;;;;;;11.30;3.72;;;6.40;81.10;;;;;;5050847;28;20017;-75
2021/04/02 06:20:49;;;;;;;8.77;2.83;;;6.40;81.10;;;;;;5052430;28;20040;-76
2021/04/02 06:23:25;;;;;;;12.77;3.30;;;6.40;81.40;;;;;;5055614;28;20029;-75
2021/04/02 06:25:57;;;;;;;7.60;2.67;;;6.40;81.50;;;;;;5057247;28;20040;-74
2021/04/02 06:28:27;;;;;;;10.70;3.60;;;6.30;81.50;;;;;;5053305;28;20405;-75
2021/04/02 06:31:06;;;;;;;9.48;4.07;;;6.30;81.60;;;;;;5071784;28;20100;-75
2021/04/02 06:33:42;;;;;;;8.48;3.58;;;6.30;81.90;;;;;;5051860;28;20029;-75
2021/04/02 06:36:26;;;;;;;10.65;3.70;;;6.30;82.00;;;;;;5036151;28;20030;-75
2021/04/02 06:38:55;;;;;;;12.95;3.67;;;6.30;82.20;;;;;;5063773;28;20028;-75
2021/04/02 06:41:22;;;;;;;;;;;6.20;82.20;;;;;;5033980;28;20028;-76
2021/04/02 06:43:51;;;;;;;13.27;4.25;;;6.30;82.50;;;;;;5053560;28;20400;-75
2021/04/02 06:46:28;;;;;;;13.05;4.95;;;6.20;82.70;;;;;;5050784;28;20041;-75
2021/04/02 06:48:54;;;;;;;14.15;4.43;;;6.10;83.10;;;;;;5052252;28;20071;-75
2021/04/02 06:51:22;;;;;;;13.25;4.15;;;6.10;83.20;;;;;;5029854;28;20386;-74
2021/04/02 06:53:53;;;;;;;13.00;5.10;;;6.10;83.20;;;;;;5081320;28;20099;-75
2021/04/02 06:56:20;;;;;;;17.50;4.45;;;6.20;83.30;;;;;;5035159;28;20058;-75
2021/04/02 06:58:47;;;;;;;12.02;4.82;;;6.20;83.10;;;;;;5052453;28;20067;-75
2021/04/02 07:01:14;;;;;;;10.52;4.47;;;6.20;83.00;;;;;;5070713;28;20049;-75
2021/04/02 07:03:43;;;;;;;15.07;5.78;;;6.40;83.40;;;;;;5053955;28;20068;-75
2021/04/02 07:06:09;;;;;;;8.45;3.83;;;6.50;82.90;;;;;;5045684;28;20024;-75
2021/04/02 07:08:38;;;;;;;14.00;4.57;;;6.60;82.30;;;;;;5054034;28;20497;-75
2021/04/02 07:11:04;;;;;;;12.43;4.22;;;6.80;81.90;;;;;;5055624;28;20508;-75
2021/04/02 07:13:49;;;;;;;8.00;4.15;;;7.00;82.20;;;;;;5055120;28;20037;-75
2021/04/02 07:16:19;;;;;;;12.07;4.63;;;7.20;81.60;;;;;;5055719;28;20021;-75
2021/04/02 07:18:46;;;;;;;11.10;4.10;;;7.20;80.00;;;;;;5033681;28;20059;-75
2021/04/02 07:21:13;;;;;;;8.65;3.70;;;7.10;79.70;;;;;;5044562;28;20067;-75
2021/04/02 07:23:43;;;;;;;13.35;4.88;;;6.90;80.00;;;;;;5042852;28;20033;-75
2021/04/02 07:26:10;;;;;;;14.25;4.60;;;6.70;80.40;;;;;;5066260;28;20078;-75
2021/04/02 07:28:39;;;;;;;8.50;4.25;;;6.70;80.80;;;;;;5055955;28;20017;-75
2021/04/02 07:31:06;;;;;;;11.65;4.40;;;6.60;81.00;;;;;;5051054;28;20023;-75
2021/04/02 07:33:34;;;;;;;8.77;3.95;;;6.60;81.10;;;;;;5053213;28;20067;-75
2021/04/02 07:36:01;;;;;;;11.70;5.35;;;6.60;81.10;;;;;;5036857;28;20025;-75
2021/04/02 07:38:30;;;;;;;15.80;5.18;;;6.60;81.10;;;;;;5053136;28;20116;-75
2021/04/02 07:40:56;;;;;;;14.10;4.90;;;6.60;81.30;;;;;;5050373;28;20028;-75
2021/04/02 07:43:29;;;;;;;11.65;5.00;;;6.60;81.50;;;;;;5055761;28;20279;-75
2021/04/02 07:46:25;;;;;;;11.13;5.70;;;6.50;81.50;;;;;;5062919;28;20036;-75
2021/04/02 07:49:09;;;;;;;11.43;4.80;;;6.50;81.70;;;;;;5062102;28;20068;-75
2021/04/02 07:51:47;;;;;;;14.75;5.43;;;6.50;81.80;;;;;;5046683;28;20034;-75
2021/04/02 07:54:27;;;;;;;8.77;5.28;;;6.50;81.80;;;;;;5044971;28;20420;-75
2021/04/02 07:56:57;;;;;;;14.13;5.40;;;6.50;81.80;;;;;;5041160;28;20025;-77
2021/04/02 07:59:44;;;;;;;11.48;4.90;;;6.60;81.70;;;;;;5038350;28;20072;-77
2021/04/02 08:02:28;;;;;;;23.02;5.43;;;6.60;81.70;;;;;;5056457;28;20025;-78
2021/04/02 08:04:57;;;;;;;15.07;5.28;;;6.70;81.50;;;;;;5035660;28;20621;-78
2021/04/02 08:07:42;;;;;;;13.43;6.50;;;6.70;81.20;;;;;;5051747;28;20138;-77
2021/04/02 08:10:10;;;;;;;12.73;5.47;;;6.80;81.30;;;;;;5055552;28;20021;-77
2021/04/02 08:12:36;;;;;;;15.88;5.93;;;6.80;81.10;;;;;;5040373;28;20033;-77
2021/04/02 08:15:12;;;;;;;13.13;5.63;;;6.90;80.90;;;;;;5044253;28;20030;-77
2021/04/02 08:17:41;;;;;;;18.38;5.90;;;6.90;81.00;;;;;;5059694;28;20049;-77
2021/04/02 08:20:09;;;;;;;11.50;4.80;;;7.00;80.80;;;;;;5044990;28;20029;-78
2021/04/02 08:22:36;;;;;;;15.77;4.90;;;7.00;80.40;;;;;;5055183;28;20119;-77
2021/04/02 08:25:09;;;;;;;7.65;4.07;;;7.00;80.10;;;;;;5069926;28;20032;-76
2021/04/02 08:27:35;;;;;;;11.50;4.45;;;7.00;80.20;;;;;;5058998;28;20086;-77
2021/04/02 08:30:05;;;;;;;13.82;4.70;;;7.10;79.80;;;;;;5066140;28;20063;-80
2021/04/02 08:32:38;;;;;;;12.77;4.50;;;7.20;79.50;;;;;;5075144;28;20029;-82
2021/04/02 08:35:08;;;;;;;14.07;3.97;;;7.30;79.20;;;;;;5075267;28;20021;-79
2021/04/02 08:37:34;;;;;;;8.50;3.80;;;7.40;78.60;;;;;;5073630;28;20444;-80
2021/04/02 08:40:01;;;;;;;11.90;4.65;;;7.40;78.20;;;;;;5075263;28;20056;-80
2021/04/02 08:42:30;;;;;;;10.55;3.97;;;7.50;77.90;;;;;;5057607;28;20048;-79
2021/04/02 08:44:57;;;;;;;7.32;3.35;;;7.60;77.70;;;;;;5075101;28;20073;-80
2021/04/02 08:47:22;;;;;;;8.80;3.65;;;7.80;77.30;;;;;;5053848;28;20398;-79
2021/04/02 08:49:53;;;;;;;8.65;3.08;;;8.00;77.30;;;;;;5055157;28;20021;-79
2021/04/02 08:52:25;;;;;;;10.15;3.10;;;8.10;76.20;;;;;;5053528;28;20017;-79
2021/04/02 08:54:55;;;;;;;7.38;3.42;;;8.20;75.30;;;;;;5055194;28;20033;-79
2021/04/02 08:57:24;;;;;;;6.93;2.83;;;8.30;74.80;;;;;;5054565;28;20554;-79
2021/04/02 08:59:52;;;;;;;6.88;2.88;;;8.40;74.20;;;;;;5053163;28;20100;-78
2021/04/02 09:02:18;;;;;;;6.45;3.05;;;8.40;73.70;;;;;;5053281;28;20022;-79
2021/04/02 09:04:46;;;;;;;6.07;2.95;;;8.40;73.80;;;;;;5054239;28;20114;-79
2021/04/02 09:07:12;;;;;;;10.45;3.13;;;8.50;73.50;;;;;;5053043;28;20024;-79
2021/04/02 09:09:43;;;;;;;6.88;3.30;;;8.50;73.10;;;;;;5053659;28;20107;-79
2021/04/02 09:12:11;;;;;;;11.90;3.35;;;8.50;72.70;;;;;;5053911;28;20029;-79
2021/04/02 09:14:43;;;;;;;5.43;2.90;;;8.50;72.70;;;;;;5036604;28;20029;-79
2021/04/02 09:17:12;;;;;;;6.68;2.63;;;8.50;72.60;;;;;;5054182;28;20025;-79
2021/04/02 09:19:38;;;;;;;;;;;8.60;72.40;;;;;;5053360;28;20029;-79
2021/04/02 09:22:05;;;;;;;8.80;3.40;;;8.80;72.10;;;;;;5052372;28;19916;-78
2021/04/02 09:24:33;;;;;;;6.63;2.95;;;8.90;71.50;;;;;;5053006;28;20103;-79
2021/04/02 09:27:06;;;;;;;6.20;2.92;;;9.00;71.00;;;;;;5053892;28;20025;-78
2021/04/02 09:29:32;;;;;;;6.93;2.78;;;9.10;70.90;;;;;;5052547;28;20028;-79
2021/04/02 09:31:58;;;;;;;7.85;2.80;;;9.20;70.30;;;;;;5053032;28;20063;-78
2021/04/02 09:34:24;;;;;;;9.80;2.88;;;9.20;70.00;;;;;;5053845;28;20572;-79
2021/04/02 09:36:49;;;;;;;8.88;3.03;;;9.30;69.60;;;;;;5053119;28;20028;-79
2021/04/02 09:39:21;;;;;;;10.43;2.88;;;9.60;69.20;;;;;;5053146;28;20099;-77
2021/04/02 09:42:02;;;;;;;11.98;2.92;;;9.90;68.00;;;;;;5053563;28;20024;-78
2021/04/02 09:44:39;;;;;;;11.02;2.90;;;10.10;67.00;;;;;;5052743;28;20420;-79
2021/04/02 09:47:07;;;;;;;8.38;3.50;;;10.10;67.00;;;;;;5088506;28;20051;-79
2021/04/02 09:49:33;;;;;;;7.53;2.58;;;10.20;66.00;;;;;;5075828;28;20658;-78
2021/04/02 09:52:00;;;;;;;11.40;3.13;;;10.50;66.40;;;;;;5059122;28;20024;-77
2021/04/02 09:54:29;;;;;;;14.52;3.30;;;10.60;66.00;;;;;;5093483;28;20043;-78
2021/04/02 09:56:57;;;;;;;10.73;2.55;;;10.70;64.30;;;;;;5093339;28;20023;-78
2021/04/02 09:59:23;;;;;;;9.40;3.10;;;10.50;64.10;;;;;;5105494;28;20546;-78
2021/04/02 10:01:49;;;;;;;10.10;2.58;;;10.40;64.90;;;;;;5075527;28;20032;-78
2021/04/02 10:04:16;;;;;;;7.07;2.33;;;10.40;64.80;;;;;;5093747;28;20113;-78
2021/04/02 10:06:43;;;;;;;7.15;2.25;;;10.50;64.70;;;;;;5075511;28;20434;-78
2021/04/02 10:09:09;;;;;;;10.82;3.20;;;10.80;64.50;;;;;;5093594;28;20021;-78
2021/04/02 10:11:37;;;;;;;10.45;2.92;;;11.00;63.30;;;;;;5075774;28;20028;-78
2021/04/02 10:14:04;;;;;;;11.93;2.78;;;10.90;62.10;;;;;;5093472;28;20375;-78
2021/04/02 10:16:30;;;;;;;6.40;2.13;;;10.70;63.00;;;;;;5093082;28;20461;-78
2021/04/02 10:18:55;;;;;;;8.50;2.53;;;10.60;63.50;;;;;;5092214;28;20035;-78
2021/04/02 10:21:23;;;;;;;9.55;3.10;;;10.40;63.70;;;;;;5075508;28;20028;-78
2021/04/02 10:23:50;;;;;;;10.55;2.45;;;10.20;64.10;;;;;;5075472;28;20063;-78
2021/04/02 10:26:16;;;;;;;11.85;2.53;;;10.20;64.50;;;;;;5093489;28;20552;-78
2021/04/02 10:28:42;;;;;;;6.88;2.15;;;10.30;65.40;;;;;;5075866;28;20028;-78
2021/04/02 10:31:09;;;;;;;9.15;2.50;;;10.30;64.20;;;;;;5093361;28;20438;-78
2021/04/02 10:33:35;;;;;;;6.97;2.05;;;10.40;63.90;;;;;;5093407;28;20039;-78
2021/04/02 10:36:00;;;;;;;7.82;1.85;;;10.40;63.70;;;;;;5093386;28;20295;-78
2021/04/02 10:38:26;;;;;;;10.15;2.28;;;10.50;63.90;;;;;;5073892;28;20024;-75
2021/04/02 10:40:53;;;;;;;8.75;2.00;;;10.50;63.90;;;;;;5073955;28;20032;-75
2021/04/02 10:43:19;;;;;;;11.95;2.28;;;10.50;63.20;;;;;;5074017;28;20114;-75
2021/04/02 10:45:45;;;;;;;11.20;2.08;;;10.40;63.60;;;;;;5073982;28;20469;-74
2021/04/02 10:48:11;;;;;;;9.38;2.13;;;10.30;63.50;;;;;;5092504;28;20064;-75
2021/04/02 10:50:38;;;;;;;7.05;1.85;;;10.30;63.40;;;;;;5091197;28;20024;-74
2021/04/02 10:53:03;;;;;;;7.40;1.77;;;10.20;63.30;;;;;;5092215;28;20028;-75
2021/04/02 10:55:29;;;;;;;8.25;1.98;;;10.20;63.60;;;;;;5092349;28;20513;-75
2021/04/02 10:57:55;;;;;;;8.90;2.00;;;10.20;63.90;;;;;;5074824;28;20468;-75
2021/04/02 11:00:22;;;;;;;9.27;2.33;;;10.30;63.60;;;;;;5073786;28;20119;-75
2021/04/02 11:02:48;;;;;;;9.32;2.00;;;10.40;62.90;;;;;;5091901;28;20073;-75
2021/04/02 11:05:14;;;;;;;6.85;2.22;;;10.40;62.40;;;;;;5091476;28;20365;-81
2021/04/02 11:07:40;;;;;;;8.35;2.30;;;10.30;61.30;;;;;;5074833;28;20025;-81
2021/04/02 11:10:11;;;;;;;13.63;2.03;;;10.20;60.60;;;;;;5092934;28;20075;-81
2021/04/02 11:12:38;;;;;;;8.95;2.10;;;10.20;61.00;;;;;;5092985;28;20055;-81
2021/04/02 11:15:05;;;;;;;5.95;1.50;;;10.10;61.10;;;;;;5075033;28;20047;-81
2021/04/02 11:17:31;;;;;;;10.70;1.90;;;10.10;61.70;;;;;;5092857;28;20024;-81
2021/04/02 11:19:58;;;;;;;11.35;2.00;;;10.20;61.30;;;;;;5074843;28;20020;-80
2021/04/02 11:22:24;;;;;;;9.00;1.77;;;10.30;60.70;;;;;;5074940;28;20024;-81
2021/04/02 11:24:52;;;;;;;7.18;1.80;;;10.60;60.40;;;;;;5058807;28;20061;-84
2021/04/02 11:27:18;;;;;;;7.05;1.88;;;11.00;59.50;;;;;;5092496;28;20020;-81
2021/04/02 11:29:44;;;;;;;9.63;2.08;;;11.20;58.10;;;;;;5072870;28;20506;-78
2021/04/02 11:32:11;;;;;;;6.18;1.52;;;11.30;58.00;;;;;;5091710;28;20036;-79
2021/04/02 11:34:37;;;;;;;5.97;1.60;;;11.30;57.80;;;;;;5092667;28;20032;-79
2021/04/02 11:37:06;;;;;;;6.60;1.90;;;11.40;57.90;;;;;;5074920;28;20035;-79
2021/04/02 11:39:32;;;;;;;;;;;11.60;58.30;;;;;;5093469;28;20103;-79
2021/04/02 11:41:58;;;;;;;8.05;1.80;;;11.90;56.70;;;;;;5092867;28;19904;-78
2021/04/02 11:44:24;;;;;;;8.35;2.08;;;12.00;57.80;;;;;;5096148;28;20051;-78
2021/04/02 11:46:50;;;;;;;8.40;2.03;;;12.20;56.60;;;;;;5096303;28;20076;-78
2021/04/02 11:49:16;;;;;;;13.40;2.53;;;12.40;55.50;;;;;;5096071;28;20362;-79
2021/04/02 11:51:43;;;;;;;11.95;2.30;;;12.40;54.90;;;;;;5095939;28;20103;-77
2021/04/02 11:54:08;;;;;;;7.35;2.40;;;12.30;55.00;;;;;;5096066;28;20498;-78
2021/04/02 11:56:34;;;;;;;10.88;2.05;;;12.30;55.00;;;;;;5095691;28;20024;-78
2021/04/02 11:59:00;;;;;;;6.53;2.13;;;12.60;54.50;;;;;;5096056;28;20445;-78
2021/04/02 12:01:25;;;;;;;5.82;1.58;;;12.70;53.50;;;;;;5077786;28;20384;-78
2021/04/02 12:03:51;;;;;;;13.60;2.42;;;12.80;53.70;;;;;;5078006;28;20127;-77
2021/04/02 12:06:17;;;;;;;8.35;2.33;;;12.80;53.00;;;;;;5060975;28;20458;-78
2021/04/02 12:08:42;;;;;;;6.78;2.25;;;12.60;53.50;;;;;;5061224;28;20127;-78
2021/04/02 12:11:08;;;;;;;6.07;1.98;;;12.50;53.60;;;;;;5095694;28;20028;-78
2021/04/02 12:13:34;;;;;;;9.98;1.75;;;12.40;53.60;;;;;;5095656;28;20032;-78
2021/04/02 12:16:00;;;;;;;8.00;2.22;;;12.20;53.10;;;;;;5095866;28;20487;-78
2021/04/02 12:18:25;;;;;;;7.57;1.55;;;12.20;53.40;;;;;;5095885;28;20039;-79
2021/04/02 12:20:51;;;;;;;8.70;2.60;;;12.40;54.30;;;;;;5076854;28;20529;-79
2021/04/02 12:23:17;;;;;;;5.50;1.75;;;12.70;52.90;;;;;;5095516;28;20032;-79
2021/04/02 12:25:43;;;;;;;6.20;1.58;;;13.10;52.10;;;;;;5095001;28;20040;-79
2021/04/02 12:28:08;;;;;;;7.53;1.92;;;13.20;51.10;;;;;;5077548;28;20111;-79
2021/04/02 12:30:34;;;;;;;10.38;1.90;;;13.00;51.30;;;;;;5077243;28;20162;-79
2021/04/02 12:33:00;;;;;;;8.38;2.00;;;12.80;52.10;;;;;;5095274;28;20025;-79
2021/04/02 12:35:26;;;;;;;9.23;2.45;;;12.60;52.10;;;;;;5095303;28;20027;-79
2021/04/02 12:37:52;;;;;;;7.18;2.35;;;12.40;52.30;;;;;;5060624;28;20093;-79
2021/04/02 12:40:21;;;;;;;8.02;2.00;;;12.30;52.50;;;;;;5077328;28;20024;-79
2021/04/02 12:42:47;;;;;;;7.43;1.80;;;12.40;53.30;;;;;;5094976;28;20383;-78
2021/04/02 12:45:14;;;;;;;6.35;1.70;;;12.60;51.80;;;;;;5095003;28;20063;-77
2021/04/02 12:47:40;;;;;;;7.97;2.00;;;12.50;52.10;;;;;;5094678;28;20400;-77
2021/04/02 12:50:12;;;;;;;7.63;2.00;;;12.70;52.40;;;;;;5094790;28;20548;-77
2021/04/02 12:52:39;;;;;;;4.40;1.50;;;13.00;51.40;;;;;;5076538;28;20392;-77
2021/04/02 12:55:06;;;;;;;6.00;1.50;;;13.00;50.80;;;;;;5076686;28;20024;-77
2021/04/02 12:57:32;;;;;;;6.07;1.70;;;13.20;50.50;;;;;;5094842;28;20066;-76